Time;durP1;ratioP1;P1;durP2;ratioP2;P2;SDS_P1;SDS_P2;PMS_P1;PMS_P2;Temp;Humidity;BMP_temperature;BMP_pressure;BME280_temperature;BME280_humidity;BME280_pressure;Samples;Min_cycle;Max_cycle;Signal;HPM_P1;HPM_P2
2023/07/29 00:00:45;;;;;;;2.53;1.80;;;;;;;21.24;71.54;97074.06;5018257;28;20198;-71
2023/07/29 00:03:10;;;;;;;5.50;1.60;;;;;;;21.23;71.71;97059.13;5014845;28;20218;-69
2023/07/29 00:05:39;;;;;;;6.70;1.70;;;;;;;21.27;71.54;97060.31;5015770;28;20737;-69
2023/07/29 00:08:05;;;;;;;3.10;1.60;;;;;;;21.29;71.63;97055.56;5011220;28;20642;-72
2023/07/29 00:10:36;;;;;;;3.23;1.67;;;;;;;21.25;71.40;97046.38;5017843;28;20473;-71
2023/07/29 00:13:01;;;;;;;1.97;1.40;;;;;;;21.25;71.99;97056.22;5016033;28;20442;-71
2023/07/29 00:15:27;;;;;;;1.63;1.50;;;;;;;21.21;71.83;97052.38;5015081;28;20469;-71
2023/07/29 00:17:52;;;;;;;4.60;1.70;;;;;;;21.17;71.83;97049.38;5018503;28;20195;-71
2023/07/29 00:20:17;;;;;;;4.10;1.50;;;;;;;21.11;72.03;97051.03;5009934;28;20279;-70
2023/07/29 00:22:43;;;;;;;2.73;1.77;;;;;;;21.16;72.22;97055.72;5009815;28;20642;-71
2023/07/29 00:25:08;;;;;;;1.40;1.30;;;;;;;21.16;72.17;97055.72;5011675;28;20528;-70
2023/07/29 00:27:34;;;;;;;5.00;1.97;;;;;;;21.13;72.28;97053.50;5014401;28;20196;-70
2023/07/29 00:29:59;;;;;;;8.10;1.73;;;;;;;21.10;72.47;97053.94;5009814;28;20616;-70
2023/07/29 00:32:27;;;;;;;2.17;1.97;;;;;;;21.08;72.25;97051.53;5010141;28;20200;-70
2023/07/29 00:34:52;;;;;;;5.20;2.10;;;;;;;21.12;72.50;97046.56;5013005;28;20903;-69
2023/07/29 00:37:17;;;;;;;4.13;1.70;;;;;;;21.15;71.99;97040.78;5011944;28;20454;-69
2023/07/29 00:39:43;;;;;;;1.73;1.47;;;;;;;21.15;72.31;97051.44;5018168;28;20185;-72
2023/07/29 00:42:09;;;;;;;2.90;1.40;;;;;;;21.19;71.95;97047.28;5015307;28;20685;-70
2023/07/29 00:44:34;;;;;;;1.50;1.27;;;;;;;21.21;71.96;97049.72;5007651;28;20184;-72
2023/07/29 00:47:02;;;;;;;2.53;1.50;;;;;;;21.23;72.25;97050.31;5014109;28;20231;-71
2023/07/29 00:49:28;;;;;;;6.77;1.97;;;;;;;21.24;72.16;97043.94;5017346;28;20219;-71
2023/07/29 00:51:53;;;;;;;4.50;1.77;;;;;;;21.25;71.59;97049.06;5010257;28;20936;-70
2023/07/29 00:54:19;;;;;;;2.80;1.30;;;;;;;21.20;71.70;97043.56;5008896;28;20199;-70
2023/07/29 00:56:44;;;;;;;1.83;1.40;;;;;;;21.16;72.11;97053.88;5016169;28;20268;-72
2023/07/29 00:59:10;;;;;;;1.80;1.47;;;;;;;21.17;71.87;97052.84;5011395;28;20275;-71
2023/07/29 01:01:35;;;;;;;2.50;1.50;;;;;;;21.17;72.23;97044.84;4991827;28;20184;-70
2023/07/29 01:04:01;;;;;;;3.33;1.63;;;;;;;21.16;72.20;97037.88;5009376;28;20590;-71
2023/07/29 01:06:39;;;;;;;2.57;1.53;;;;;;;21.18;72.04;97035.81;5008450;28;20272;-72
2023/07/29 01:09:10;;;;;;;1.87;1.57;;;;;;;21.19;72.45;97025.94;5010378;28;20235;-73
2023/07/29 01:11:43;;;;;;;6.40;1.70;;;;;;;21.20;72.32;97024.91;5009329;28;20435;-71
2023/07/29 01:14:18;;;;;;;3.00;1.70;;;;;;;21.21;72.28;97025.75;5011445;28;20491;-72
2023/07/29 01:16:47;;;;;;;2.03;1.70;;;;;;;21.21;72.60;97029.22;5014282;28;21188;-72
2023/07/29 01:19:49;;;;;;;9.20;1.90;;;;;;;21.21;72.27;97029.22;5011167;28;21041;-71
2023/07/29 01:22:16;;;;;;;2.10;1.60;;;;;;;21.21;72.55;97037.19;5013107;28;20439;-71
2023/07/29 01:24:41;;;;;;;2.20;1.30;;;;;;;21.24;72.40;97031.44;5008934;28;20478;-71
2023/07/29 01:27:07;;;;;;;5.30;1.50;;;;;;;21.23;72.49;97024.47;5018263;28;20811;-70
2023/07/29 01:29:32;;;;;;;3.00;1.80;;;;;;;21.24;72.42;97027.94;5015959;28;20188;-70
2023/07/29 01:32:02;;;;;;;2.37;1.73;;;;;;;21.24;72.15;97027.94;5011084;28;20219;-70
2023/07/29 01:34:36;;;;;;;4.60;1.83;;;;;;;21.23;72.16;97031.66;5016673;28;20195;-70
2023/07/29 01:37:02;;;;;;;2.03;1.80;;;;;;;21.24;72.21;97041.25;5004791;28;20419;-71
2023/07/29 01:39:32;;;;;;;4.13;1.50;;;;;;;21.20;72.34;97032.09;5011628;28;20437;-71
2023/07/29 01:41:58;;;;;;;2.97;1.83;;;;;;;21.20;72.57;97035.56;5010813;28;20480;-71
2023/07/29 01:44:24;;;;;;;4.80;1.60;;;;;;;21.21;72.76;97031.88;5007423;28;20438;-70
2023/07/29 01:46:50;;;;;;;1.73;1.63;;;;;;;21.20;72.70;97027.56;4993798;28;20233;-69
2023/07/29 01:49:15;;;;;;;1.47;1.37;;;;;;;21.21;72.42;97023.88;5012808;28;20424;-70
2023/07/29 01:51:41;;;;;;;1.70;1.60;;;;;;;21.21;72.16;97018.56;5020390;28;20248;-71
2023/07/29 01:54:06;;;;;;;3.17;1.43;;;;;;;21.18;72.43;97021.66;5013388;28;20208;-70
2023/07/29 01:56:31;;;;;;;3.83;1.40;;;;;;;21.18;72.01;97019.00;5005938;28;20195;-70
2023/07/29 01:58:57;;;;;;;1.47;1.37;;;;;;;21.16;72.36;97023.75;5011460;28;20192;-72
2023/07/29 02:01:23;;;;;;;1.50;1.20;;;;;;;21.13;72.12;97005.56;5015975;28;20184;-71
2023/07/29 02:03:54;;;;;;;2.37;1.83;;;;;;;21.16;72.45;97002.44;5012424;28;20264;-69
2023/07/29 02:06:20;;;;;;;5.00;1.60;;;;;;;21.14;72.21;97010.66;5012635;28;20740;-70
2023/07/29 02:08:45;;;;;;;3.13;1.50;;;;;;;21.11;72.22;97005.75;5009432;28;20446;-71
2023/07/29 02:11:10;;;;;;;6.70;1.50;;;;;;;21.12;72.21;97003.91;4995494;28;20184;-70
2023/07/29 02:13:36;;;;;;;2.00;1.20;;;;;;;21.06;72.22;96996.81;5012741;28;20346;-71
2023/07/29 02:16:01;;;;;;;2.20;1.50;;;;;;;21.08;72.53;96992.91;5014626;28;20303;-71
2023/07/29 02:18:27;;;;;;;3.40;1.60;;;;;;;21.09;72.21;96988.38;5009050;28;20192;-70
2023/07/29 02:20:52;;;;;;;3.10;1.60;;;;;;;21.06;72.15;96988.81;4992775;28;20267;-71
2023/07/29 02:23:18;;;;;;;4.90;1.67;;;;;;;21.06;71.98;96983.50;5020031;28;20211;-71
2023/07/29 02:25:43;;;;;;;3.60;1.70;;;;;;;21.08;71.84;96995.56;5022220;28;21056;-70
2023/07/29 02:28:09;;;;;;;2.23;2.03;;;;;;;21.08;71.75;96990.25;5015703;28;20680;-69
2023/07/29 02:30:34;;;;;;;3.63;1.40;;;;;;;21.06;71.83;96987.00;5005502;28;20192;-70
2023/07/29 02:33:01;;;;;;;2.07;1.47;;;;;;;21.04;72.18;96996.25;5008147;28;20265;-71
2023/07/29 02:35:27;;;;;;;2.40;1.90;;;;;;;21.05;71.84;97003.19;5008145;28;20204;-70
2023/07/29 02:37:52;;;;;;;3.30;1.60;;;;;;;21.02;72.05;96993.78;5017040;28;21257;-69
2023/07/29 02:40:18;;;;;;;3.23;1.40;;;;;;;21.04;71.93;96990.94;5019951;28;20479;-69
2023/07/29 02:42:43;;;;;;;4.13;1.50;;;;;;;21.02;71.91;96991.13;5010626;28;20588;-69
2023/07/29 02:45:10;;;;;;;1.60;1.50;;;;;;;21.02;72.07;96989.28;5010137;28;20204;-70
2023/07/29 02:47:37;;;;;;;3.73;2.10;;;;;;;21.04;71.82;96990.94;5015364;28;20180;-71
2023/07/29 02:50:02;;;;;;;2.23;1.47;;;;;;;21.03;72.17;96982.09;5013278;28;20507;-70
2023/07/29 02:52:28;;;;;;;2.50;1.67;;;;;;;21.04;72.08;96981.06;5010573;28;20530;-69
2023/07/29 02:54:53;;;;;;;2.77;1.43;;;;;;;21.03;71.95;96984.78;5008816;28;20643;-70
2023/07/29 02:57:19;;;;;;;1.30;1.17;;;;;;;21.01;71.95;96987.66;5003418;28;20222;-68
2023/07/29 02:59:45;;;;;;;1.97;1.60;;;;;;;21.05;71.73;96980.03;5009687;28;20263;-69
2023/07/29 03:02:11;;;;;;;1.50;1.40;;;;;;;21.07;71.77;96987.78;5009087;28;20208;-69
2023/07/29 03:04:36;;;;;;;7.80;1.50;;;;;;;21.07;71.82;96979.78;5014686;28;21011;-70
2023/07/29 03:07:02;;;;;;;1.77;1.50;;;;;;;21.08;71.52;96982.25;4998880;28;20433;-70
2023/07/29 03:09:28;;;;;;;1.60;1.43;;;;;;;21.07;71.71;96979.78;5017623;28;20187;-70
2023/07/29 03:11:54;;;;;;;1.93;1.20;;;;;;;21.05;71.85;96973.88;5016367;28;20238;-69
2023/07/29 03:14:20;;;;;;;2.33;1.50;;;;;;;21.02;71.78;96967.16;5021528;28;20556;-70
2023/07/29 03:16:46;;;;;;;6.20;1.70;;;;;;;21.01;71.52;96966.34;5014240;28;20427;-69
2023/07/29 03:19:12;;;;;;;2.37;1.70;;;;;;;20.99;71.65;96965.75;5015350;28;20493;-69
2023/07/29 03:21:38;;;;;;;1.63;1.53;;;;;;;21.02;71.87;96961.81;5012383;28;20219;-70
2023/07/29 03:24:03;;;;;;;1.50;1.40;;;;;;;21.04;71.94;96964.28;5012515;28;20494;-71
2023/07/29 03:26:38;;;;;;;1.80;1.70;;;;;;;21.04;71.42;96953.63;5013916;28;20204;-69
2023/07/29 03:29:03;;;;;;;2.63;1.90;;;;;;;21.06;71.52;96954.19;5001310;28;20330;-70
2023/07/29 03:31:29;;;;;;;1.80;1.63;;;;;;;21.05;71.42;96952.56;4980442;28;20893;-70
2023/07/29 03:33:54;;;;;;;1.70;1.60;;;;;;;21.05;71.74;96955.22;5010632;28;20204;-69
2023/07/29 03:36:21;;;;;;;2.87;1.70;;;;;;;21.05;71.37;96963.22;5017448;28;20611;-69
2023/07/29 03:38:47;;;;;;;3.53;1.80;;;;;;;21.05;71.19;96949.91;5014222;28;20220;-70
2023/07/29 03:41:12;;;;;;;1.97;1.70;;;;;;;21.00;71.55;96954.06;5009382;28;20423;-70
2023/07/29 03:43:38;;;;;;;2.73;1.70;;;;;;;21.00;71.71;96950.59;5009300;28;20518;-71
2023/07/29 03:46:03;;;;;;;3.17;1.57;;;;;;;21.01;71.34;96953.03;5026646;28;20188;-69
2023/07/29 03:48:29;;;;;;;3.57;1.80;;;;;;;21.01;71.42;96957.53;4994794;28;20664;-69
2023/07/29 03:50:54;;;;;;;1.73;1.60;;;;;;;21.03;71.51;96958.13;4996645;28;20207;-69
2023/07/29 03:53:20;;;;;;;1.63;1.53;;;;;;;21.04;71.70;96958.97;5012669;28;20292;-69
2023/07/29 03:55:46;;;;;;;2.10;1.50;;;;;;;21.03;71.48;96963.47;4980843;28;20204;-70
2023/07/29 03:58:12;;;;;;;2.00;1.30;;;;;;;21.04;71.43;96958.97;5012318;28;20279;-68
2023/07/29 04:00:38;;;;;;;2.23;1.80;;;;;;;21.02;71.57;96957.31;5014858;28;20518;-69
2023/07/29 04:03:03;;;;;;;1.60;1.40;;;;;;;21.04;71.74;96962.41;4995899;28;20208;-69
2023/07/29 04:05:29;;;;;;;4.33;1.63;;;;;;;21.06;71.93;96967.50;5015018;28;20489;-71
2023/07/29 04:07:55;;;;;;;4.37;1.77;;;;;;;21.04;72.08;96966.94;5012072;28;20180;-67
2023/07/29 04:10:20;;;;;;;3.80;1.70;;;;;;;20.98;72.37;96966.81;5018320;28;20649;-68
2023/07/29 04:12:46;;;;;;;3.50;1.90;;;;;;;20.95;72.37;96945.94;5021223;28;20208;-70
2023/07/29 04:15:11;;;;;;;5.53;2.30;;;;;;;20.93;72.35;96953.31;4995246;28;20212;-70
2023/07/29 04:17:37;;;;;;;7.27;1.97;;;;;;;20.99;72.77;96948.94;5016963;28;20720;-70
2023/07/29 04:20:02;;;;;;;6.83;1.80;;;;;;;20.97;72.75;96949.19;5008654;28;20541;-69
2023/07/29 04:22:28;;;;;;;2.80;1.90;;;;;;;20.95;72.79;96953.91;4977966;28;20204;-71
2023/07/29 04:24:53;;;;;;;1.87;1.77;;;;;;;20.94;72.97;96954.97;5013733;28;20210;-69
2023/07/29 04:27:19;;;;;;;2.67;1.83;;;;;;;20.87;72.97;96962.22;5017433;28;20210;-69
2023/07/29 04:29:44;;;;;;;3.80;1.80;;;;;;;20.91;73.20;96955.44;5009837;28;20905;-69
2023/07/29 04:32:10;;;;;;;6.40;2.00;;;;;;;20.90;73.18;96959.13;5014744;28;20319;-71
2023/07/29 04:34:35;;;;;;;3.50;2.20;;;;;;;20.84;73.73;96954.69;5021261;28;20207;-70
2023/07/29 04:37:01;;;;;;;4.23;2.30;;;;;;;20.84;73.78;96947.53;5015586;28;20187;-70
2023/07/29 04:39:26;;;;;;;6.67;2.33;;;;;;;20.86;74.00;96955.28;5017385;28;20190;-70
2023/07/29 04:41:52;;;;;;;3.63;2.07;;;;;;;20.90;73.84;96964.47;5009863;28;20191;-70
2023/07/29 04:44:17;;;;;;;2.33;2.13;;;;;;;20.94;74.08;96970.94;5010071;28;20263;-70
2023/07/29 04:46:43;;;;;;;2.57;2.07;;;;;;;20.96;73.80;96971.53;5011083;28;20275;-70
2023/07/29 04:49:08;;;;;;;4.47;2.10;;;;;;;21.02;73.46;96967.97;5012315;28;20279;-68
2023/07/29 04:51:34;;;;;;;4.30;2.40;;;;;;;21.06;73.65;96964.84;5014217;28;20188;-70
2023/07/29 04:53:59;;;;;;;9.33;2.40;;;;;;;21.06;73.64;96991.50;5016080;28;20239;-70
2023/07/29 04:56:25;;;;;;;3.57;2.30;;;;;;;21.07;73.57;96985.13;5008437;28;20210;-69
2023/07/29 04:58:51;;;;;;;3.63;2.23;;;;;;;21.09;73.58;96988.38;5018206;28;20298;-69
2023/07/29 05:01:16;;;;;;;4.53;2.20;;;;;;;21.09;73.48;96973.22;5011784;28;20435;-69
2023/07/29 05:03:42;;;;;;;4.03;2.27;;;;;;;21.11;73.84;96980.97;5010743;28;20212;-70
2023/07/29 05:06:07;;;;;;;5.20;2.40;;;;;;;21.13;74.05;96973.59;5011338;28;20177;-69
2023/07/29 05:08:33;;;;;;;5.37;2.63;;;;;;;21.16;73.87;96983.78;5010534;28;20622;-70
2023/07/29 05:10:58;;;;;;;5.30;2.30;;;;;;;21.16;74.13;96959.81;5009326;28;20711;-69
2023/07/29 05:13:24;;;;;;;5.80;2.90;;;;;;;21.14;74.25;96957.34;5020417;28;20212;-69
2023/07/29 05:15:50;;;;;;;3.50;2.50;;;;;;;21.14;74.11;96951.22;5014628;28;20207;-69
2023/07/29 05:18:16;;;;;;;6.20;2.40;;;;;;;21.12;74.16;96955.97;5012345;28;20196;-70
2023/07/29 05:20:41;;;;;;;5.17;2.23;;;;;;;21.14;74.61;96943.25;4983824;28;20193;-69
2023/07/29 05:23:07;;;;;;;5.07;2.13;;;;;;;21.14;74.61;96949.38;5018466;28;20439;-70
2023/07/29 05:25:34;;;;;;;5.47;2.77;;;;;;;21.14;74.58;96943.25;5015693;28;20184;-70
2023/07/29 05:28:00;;;;;;;5.77;2.53;;;;;;;21.17;74.84;96958.78;4992447;28;21094;-70
2023/07/29 05:30:30;;;;;;;4.13;2.70;;;;;;;21.18;74.55;96965.72;5008433;28;20471;-68
2023/07/29 05:32:59;;;;;;;4.70;2.50;;;;;;;21.13;74.74;96969.06;5010764;28;20443;-70
2023/07/29 05:35:24;;;;;;;4.57;2.40;;;;;;;21.18;74.78;96963.03;5010641;28;20547;-69
2023/07/29 05:37:50;;;;;;;2.80;2.10;;;;;;;21.23;74.77;96965.84;5014930;28;20427;-69
2023/07/29 05:40:16;;;;;;;6.33;2.50;;;;;;;21.28;74.52;96966.00;5013222;28;20180;-69
2023/07/29 05:42:41;;;;;;;3.40;2.60;;;;;;;21.29;74.89;96961.47;5015951;28;20470;-69
2023/07/29 05:45:07;;;;;;;2.73;2.20;;;;;;;21.36;74.71;96964.03;5011888;28;20190;-68
2023/07/29 05:47:33;;;;;;;4.53;2.53;;;;;;;21.33;75.00;96955.44;5013898;28;20200;-69
2023/07/29 05:49:59;;;;;;;5.67;2.50;;;;;;;21.35;75.09;96959.75;5017498;28;20418;-70
2023/07/29 05:52:25;;;;;;;2.90;2.60;;;;;;;21.40;74.86;96965.22;4993434;28;20211;-71
2023/07/29 05:54:50;;;;;;;5.13;2.80;;;;;;;21.49;74.96;96955.84;5009576;28;20819;-69
2023/07/29 05:57:16;;;;;;;3.67;3.00;;;;;;;21.48;74.87;96959.56;5014042;28;20822;-70
2023/07/29 05:59:42;;;;;;;5.00;2.53;;;;;;;21.56;74.92;96956.53;5009527;28;20251;-70
2023/07/29 06:02:07;;;;;;;5.27;2.87;;;;;;;21.59;75.03;96949.97;5017304;28;20215;-69
2023/07/29 06:04:32;;;;;;;3.60;2.50;;;;;;;21.59;75.26;96944.63;5011475;28;20636;-69
2023/07/29 06:06:58;;;;;;;5.80;2.47;;;;;;;21.75;75.09;96946.63;5014215;28;20211;-69
2023/07/29 06:09:25;;;;;;;5.20;2.63;;;;;;;21.86;74.90;96949.56;5014077;28;20175;-69
2023/07/29 06:11:51;;;;;;;3.63;2.27;;;;;;;21.91;74.76;96942.50;5011064;28;20784;-70
2023/07/29 06:14:16;;;;;;;2.60;2.40;;;;;;;21.91;74.67;96942.50;5008816;28;20474;-70
2023/07/29 06:16:42;;;;;;;4.83;2.20;;;;;;;21.97;74.47;96950.59;5016544;28;20181;-69
2023/07/29 06:19:08;;;;;;;7.70;2.33;;;;;;;22.11;74.58;96951.19;5018949;28;20265;-70
2023/07/29 06:21:34;;;;;;;2.93;2.10;;;;;;;22.30;74.50;96949.22;5008799;28;20180;-69
2023/07/29 06:24:00;;;;;;;5.73;2.30;;;;;;;22.39;74.13;96951.25;5027966;28;20443;-69
2023/07/29 06:26:26;;;;;;;1.90;1.80;;;;;;;22.41;73.75;96953.75;5009776;28;20188;-71
2023/07/29 06:28:51;;;;;;;7.83;2.30;;;;;;;22.48;73.54;96958.97;5014393;28;20211;-70
2023/07/29 06:31:17;;;;;;;4.60;2.10;;;;;;;22.54;73.31;96966.84;4982350;28;20185;-70
2023/07/29 06:33:42;;;;;;;10.33;2.40;;;;;;;22.54;73.19;96972.19;5009336;28;20751;-71
2023/07/29 06:36:08;;;;;;;9.27;1.93;;;;;;;22.48;72.55;96967.75;5010283;28;20755;-70
2023/07/29 06:38:33;;;;;;;2.20;2.00;;;;;;;22.43;72.45;96970.31;5026897;28;20181;-70
2023/07/29 06:40:59;;;;;;;3.30;1.87;;;;;;;22.44;72.55;96971.94;5011082;28;20190;-71
2023/07/29 06:43:24;;;;;;;3.20;2.13;;;;;;;22.45;72.42;96973.56;4994572;28;20247;-71
2023/07/29 06:45:50;;;;;;;7.27;1.97;;;;;;;22.46;72.44;96969.84;5014517;28;20188;-70
2023/07/29 06:48:15;;;;;;;5.17;1.97;;;;;;;22.44;72.42;96965.81;5011819;28;20184;-70
2023/07/29 06:50:41;;;;;;;3.00;1.87;;;;;;;22.42;72.58;96976.72;5012399;28;20655;-70
2023/07/29 06:53:06;;;;;;;6.10;1.60;;;;;;;22.37;72.50;96987.25;5011341;28;20287;-70
2023/07/29 06:55:31;;;;;;;7.70;1.93;;;;;;;22.31;72.45;96978.31;5015758;28;20208;-71
2023/07/29 06:57:57;;;;;;;3.20;1.93;;;;;;;22.29;72.69;96979.59;5017019;28;20576;-72
2023/07/29 07:00:22;;;;;;;2.53;2.00;;;;;;;22.21;73.07;96997.56;5010979;28;20204;-71
2023/07/29 07:02:48;;;;;;;5.90;1.80;;;;;;;22.16;73.20;96997.47;5012784;28;20208;-70
2023/07/29 07:05:14;;;;;;;1.87;1.70;;;;;;;22.14;73.41;97004.91;5013746;28;20183;-70
2023/07/29 07:07:39;;;;;;;9.77;2.13;;;;;;;22.10;73.71;97009.06;4977437;28;20713;-70
2023/07/29 07:10:05;;;;;;;3.83;2.07;;;;;;;22.08;73.78;97005.81;5016845;28;20530;-70
2023/07/29 07:12:31;;;;;;;4.70;2.00;;;;;;;21.92;74.67;97002.81;5014904;28;20626;-71
2023/07/29 07:14:56;;;;;;;4.07;1.97;;;;;;;22.01;74.34;97011.25;5018158;28;20207;-70
2023/07/29 07:17:22;;;;;;;2.27;1.60;;;;;;;22.01;74.42;97010.47;5012077;28;20184;-71
2023/07/29 07:19:48;;;;;;;2.70;1.57;;;;;;;21.96;74.49;97008.47;4995766;28;20635;-70
2023/07/29 07:22:13;;;;;;;1.20;1.10;;;;;;;21.89;74.33;97003.25;5020115;28;20183;-69
2023/07/29 07:24:39;;;;;;;2.87;2.00;;;;;;;21.85;74.46;96996.75;5016269;28;20212;-69
2023/07/29 07:27:06;;;;;;;1.47;1.37;;;;;;;21.87;74.12;96997.34;5011766;28;20359;-71
2023/07/29 07:29:31;;;;;;;1.87;1.57;;;;;;;21.87;74.01;97008.00;5011878;28;20542;-69
2023/07/29 07:31:57;;;;;;;5.93;1.40;;;;;;;21.89;73.84;97011.25;5014517;28;20184;-70
2023/07/29 07:34:22;;;;;;;1.60;1.50;;;;;;;21.91;73.91;97001.19;5016970;28;20196;-71
2023/07/29 07:36:48;;;;;;;1.60;1.50;;;;;;;21.99;74.05;96999.19;5020198;28;20628;-70
2023/07/29 07:39:14;;;;;;;2.03;1.83;;;;;;;21.99;74.12;96996.53;5013428;28;20181;-70
2023/07/29 07:41:40;;;;;;;2.33;1.77;;;;;;;22.09;74.07;97002.09;5017675;28;20214;-71
2023/07/29 07:44:05;;;;;;;2.53;1.73;;;;;;;22.08;73.91;97008.47;5011578;28;20197;-70
2023/07/29 07:46:31;;;;;;;2.43;1.50;;;;;;;22.09;73.57;97013.59;5012147;28;20831;-71
2023/07/29 07:48:56;;;;;;;4.23;1.80;;;;;;;22.12;73.85;97017.66;5018904;28;20188;-70
2023/07/29 07:51:22;;;;;;;1.77;1.67;;;;;;;22.14;73.83;97012.06;5017467;28;20200;-71
2023/07/29 07:53:48;;;;;;;3.83;1.53;;;;;;;22.17;73.38;97014.28;5017024;28;20212;-73
2023/07/29 07:56:14;;;;;;;2.23;2.00;;;;;;;22.26;73.60;97002.22;5011187;28;20240;-71
2023/07/29 07:58:40;;;;;;;5.83;1.87;;;;;;;22.33;73.37;96997.59;5012560;28;20419;-71
2023/07/29 08:01:07;;;;;;;2.77;2.03;;;;;;;22.39;73.42;97006.53;5020364;28;20469;-71
2023/07/29 08:03:32;;;;;;;2.17;1.87;;;;;;;22.47;73.37;97014.19;5000979;28;20228;-70
2023/07/29 08:05:58;;;;;;;2.03;1.83;;;;;;;22.57;73.32;97012.78;5012953;28;21216;-70
2023/07/29 08:08:28;;;;;;;1.83;1.70;;;;;;;22.61;73.11;97013.94;5000759;28;20188;-69
2023/07/29 08:10:56;;;;;;;2.03;1.50;;;;;;;22.67;73.00;97016.50;5001793;28;20431;-72
2023/07/29 08:13:23;;;;;;;1.83;1.70;;;;;;;22.78;72.88;97014.84;5027023;28;20489;-70
2023/07/29 08:15:50;;;;;;;1.97;1.50;;;;;;;22.85;72.46;97020.06;5009870;28;20525;-69
2023/07/29 08:18:16;;;;;;;1.90;1.70;;;;;;;22.94;72.01;97036.53;5015043;28;20447;-70
2023/07/29 08:20:41;;;;;;;3.53;1.47;;;;;;;22.97;71.24;97038.72;5011958;28;20893;-70
2023/07/29 08:23:07;;;;;;;4.33;1.40;;;;;;;22.99;70.62;97031.28;5012821;28;20220;-70
2023/07/29 08:25:32;;;;;;;2.37;1.30;;;;;;;23.09;70.52;97026.16;5010126;28;20193;-70
2023/07/29 08:27:57;;;;;;;4.43;1.60;;;;;;;23.15;69.78;97027.88;5015225;28;20243;-70
2023/07/29 08:30:23;;;;;;;1.67;1.30;;;;;;;23.15;69.17;97030.56;5015729;28;20223;-70
2023/07/29 08:32:48;;;;;;;2.00;1.37;;;;;;;23.18;68.26;97023.91;5010474;28;20677;-70
2023/07/29 08:35:14;;;;;;;1.97;1.40;;;;;;;23.19;68.90;97030.88;5010241;28;20258;-70
2023/07/29 08:37:39;;;;;;;2.20;1.13;;;;;;;23.36;69.00;97028.28;5011324;28;20196;-70
2023/07/29 08:40:05;;;;;;;1.43;1.10;;;;;;;23.39;67.97;97029.66;5012128;28;20183;-71
2023/07/29 08:42:32;;;;;;;1.80;1.20;;;;;;;23.51;68.18;97026.94;5014133;28;20208;-69
2023/07/29 08:45:01;;;;;;;1.47;1.20;;;;;;;23.65;67.67;97028.28;5008259;28;20423;-70
2023/07/29 08:47:27;;;;;;;1.63;1.53;;;;;;;23.77;67.81;97015.66;5008755;28;20423;-70
2023/07/29 08:49:52;;;;;;;2.00;1.33;;;;;;;23.96;67.75;97028.81;5012459;28;20435;-71
2023/07/29 08:52:18;;;;;;;3.63;1.70;;;;;;;24.06;66.36;97029.00;5009078;28;20214;-69
2023/07/29 08:54:43;;;;;;;1.87;1.30;;;;;;;24.17;66.94;97026.47;5010374;28;20899;-72
2023/07/29 08:57:09;;;;;;;1.57;1.40;;;;;;;24.61;67.15;97021.19;5023247;28;20719;-69
2023/07/29 08:59:35;;;;;;;1.73;1.10;;;;;;;24.79;65.98;97025.47;5009882;28;20188;-70
2023/07/29 09:02:00;;;;;;;1.57;1.30;;;;;;;24.94;64.65;97019.53;5008102;28;20877;-70
2023/07/29 09:04:26;;;;;;;1.27;1.17;;;;;;;24.80;63.63;97023.63;5008489;28;20564;-70
2023/07/29 09:06:51;;;;;;;1.40;1.10;;;;;;;24.94;63.92;97022.22;5011259;28;20211;-71
2023/07/29 09:09:17;;;;;;;1.30;1.20;;;;;;;25.03;63.43;97019.06;5008896;28;20189;-70
2023/07/29 09:11:43;;;;;;;1.13;1.03;;;;;;;25.03;62.35;97016.38;5009487;28;20199;-69
2023/07/29 09:14:09;;;;;;;1.70;1.40;;;;;;;25.07;62.36;97012.97;5008712;28;20283;-69
2023/07/29 09:16:36;;;;;;;2.50;1.23;;;;;;;25.15;62.89;97014.38;4978646;28;20975;-71
2023/07/29 09:19:03;;;;;;;1.53;1.40;;;;;;;25.29;63.15;97007.56;5017552;28;20418;-70
2023/07/29 09:21:28;;;;;;;1.93;1.67;;;;;;;25.55;63.56;97002.50;5012628;28;20422;-70
2023/07/29 09:23:55;;;;;;;1.97;1.63;;;;;;;25.88;62.12;96997.94;4976383;28;20892;-70
2023/07/29 09:26:25;;;;;;;3.57;1.30;;;;;;;26.04;60.28;96995.38;5007069;28;20593;-70
2023/07/29 09:28:53;;;;;;;1.53;1.30;;;;;;;26.34;61.07;97004.72;5008133;28;20441;-70
2023/07/29 09:31:22;;;;;;;2.13;1.10;;;;;;;26.34;58.67;97000.16;5007463;28;20541;-70
2023/07/29 09:33:48;;;;;;;1.97;1.70;;;;;;;26.46;58.55;96989.25;4994435;28;20455;-70
2023/07/29 09:36:13;;;;;;;1.73;1.20;;;;;;;26.41;57.58;96999.94;5008904;28;20569;-70
2023/07/29 09:38:39;;;;;;;1.90;1.40;;;;;;;26.37;57.19;97005.03;5012234;28;20192;-71
2023/07/29 09:41:04;;;;;;;2.20;1.53;;;;;;;26.28;57.66;97001.19;5012939;28;20180;-72
2023/07/29 09:43:32;;;;;;;4.23;1.40;;;;;;;26.34;57.47;97015.47;5008513;28;20230;-71
2023/07/29 09:46:01;;;;;;;2.20;1.37;;;;;;;26.27;57.21;97020.25;5009956;28;21521;-70
2023/07/29 09:48:28;;;;;;;1.57;1.40;;;;;;;26.26;57.33;97019.47;5018942;28;20426;-72
2023/07/29 09:50:54;;;;;;;2.03;1.50;;;;;;;26.25;57.26;97000.91;5012728;28;20450;-71
2023/07/29 09:53:20;;;;;;;1.67;1.20;;;;;;;26.18;57.26;97006.50;5018649;28;20447;-70
2023/07/29 09:55:48;;;;;;;2.53;1.57;;;;;;;26.22;57.99;97008.41;5006700;28;20466;-71
2023/07/29 09:58:13;;;;;;;2.43;1.47;;;;;;;26.41;58.45;97010.69;5010479;28;20198;-72
2023/07/29 10:00:40;;;;;;;1.67;1.57;;;;;;;26.62;57.96;97000.03;4978034;28;20440;-70
2023/07/29 10:03:06;;;;;;;1.57;1.47;;;;;;;26.83;57.49;96998.28;5007428;28;20207;-71
2023/07/29 10:05:34;;;;;;;2.93;1.60;;;;;;;27.12;55.90;96995.97;5007838;28;20676;-71
2023/07/29 10:08:00;;;;;;;2.13;1.37;;;;;;;27.31;53.69;96982.03;5009124;28;20427;-70
2023/07/29 10:10:25;;;;;;;2.80;1.57;;;;;;;27.67;53.80;96982.09;5008571;28;20442;-70
2023/07/29 10:12:52;;;;;;;3.10;1.60;;;;;;;27.90;51.66;96985.34;5006528;28;20290;-72
2023/07/29 10:15:17;;;;;;;1.70;1.60;;;;;;;28.15;51.52;96991.81;5015304;28;20673;-73
2023/07/29 10:17:43;;;;;;;1.83;1.40;;;;;;;28.41;48.09;96991.75;5018360;28;20472;-71
2023/07/29 10:20:10;;;;;;;1.83;1.57;;;;;;;28.53;47.71;96984.19;5012199;28;20180;-73
2023/07/29 10:22:38;;;;;;;2.20;1.70;;;;;;;28.82;47.28;96994.34;5014134;28;20227;-71
2023/07/29 10:25:07;;;;;;;1.60;1.50;;;;;;;28.86;45.54;96995.41;5012947;28;20920;-71
2023/07/29 10:27:49;;;;;;;1.80;1.67;;;;;;;28.85;45.48;97003.78;5011549;28;20425;-71
2023/07/29 10:30:15;;;;;;;1.80;1.70;;;;;;;28.85;45.81;96999.19;5011857;28;20513;-72
2023/07/29 10:32:44;;;;;;;1.77;1.53;;;;;;;29.01;46.20;96996.41;5015657;28;20565;-70
2023/07/29 10:35:11;;;;;;;1.70;1.60;;;;;;;28.87;43.92;96994.31;5012103;28;20295;-70
2023/07/29 10:37:37;;;;;;;1.60;1.50;;;;;;;29.03;44.87;97000.47;5015076;28;20493;-69
2023/07/29 10:40:06;;;;;;;2.20;1.50;;;;;;;29.02;45.60;96992.63;5016126;28;20434;-70
2023/07/29 10:42:31;;;;;;;1.97;1.37;;;;;;;29.04;45.05;96990.47;5014151;28;20204;-71
2023/07/29 10:44:57;;;;;;;2.20;1.47;;;;;;;28.94;45.31;96997.53;5015454;28;20828;-70
2023/07/29 10:47:24;;;;;;;1.80;1.70;;;;;;;28.89;44.84;96991.34;5016121;28;20182;-70
2023/07/29 10:49:59;;;;;;;1.70;1.60;;;;;;;28.99;44.52;96998.56;5014001;28;20183;-70
2023/07/29 10:52:35;;;;;;;3.77;1.53;;;;;;;29.25;45.36;96997.38;5009773;28;20454;-72
2023/07/29 10:55:02;;;;;;;3.67;1.60;;;;;;;29.41;43.67;96975.72;5011233;28;20804;-70
2023/07/29 10:57:35;;;;;;;6.20;1.50;;;;;;;29.66;44.04;96971.22;5011970;28;20427;-70
2023/07/29 11:00:03;;;;;;;1.40;1.30;;;;;;;29.81;44.45;96976.50;5009737;28;20847;-71
2023/07/29 11:02:34;;;;;;;1.40;1.30;;;;;;;29.79;43.86;96981.38;5014873;28;21263;-71
2023/07/29 11:05:05;;;;;;;1.43;1.33;;;;;;;29.70;44.42;96983.06;5017659;28;20419;-71
2023/07/29 11:07:31;;;;;;;1.37;1.27;;;;;;;29.65;45.07;96991.19;5011875;28;20526;-71
2023/07/29 11:10:06;;;;;;;2.70;1.50;;;;;;;29.62;45.48;96994.44;5019643;28;20423;-70
2023/07/29 11:12:47;;;;;;;2.40;1.40;;;;;;;29.57;45.04;96998.81;5010039;28;20203;-71
2023/07/29 11:15:17;;;;;;;2.93;1.43;;;;;;;29.53;44.77;96992.38;5011914;28;20842;-70
2023/07/29 11:17:51;;;;;;;1.50;1.40;;;;;;;29.61;44.02;96992.88;5014623;28;20423;-70
2023/07/29 11:20:18;;;;;;;2.10;1.80;;;;;;;29.77;43.08;96994.34;5015444;28;20426;-71
2023/07/29 11:22:44;;;;;;;1.63;1.43;;;;;;;29.86;43.00;96989.97;5011628;28;20432;-69
2023/07/29 11:25:15;;;;;;;1.53;1.30;;;;;;;29.80;42.41;97001.09;5010982;28;20791;-72
2023/07/29 11:27:40;;;;;;;1.80;1.40;;;;;;;29.65;42.07;96991.19;5010938;28;20188;-72
2023/07/29 11:30:08;;;;;;;2.40;1.47;;;;;;;29.57;43.04;96993.44;5010808;28;20438;-72